Time;durP1;ratioP1;P1;durP2;ratioP2;P2;SDS_P1;SDS_P2;PMS_P1;PMS_P2;Temp;Humidity;BMP_temperature;BMP_pressure;BME280_temperature;BME280_humidity;BME280_pressure;Samples;Min_cycle;Max_cycle;Signal;HPM_P1;HPM_P2
2021/04/07 00:02:41;;;;;;;1.53;1.00;;;18.50;26.40;;;;;;8457874;28;20069;-55
2021/04/07 00:06:41;;;;;;;0.83;0.70;;;18.50;26.50;;;;;;8459493;28;20055;-57
2021/04/07 00:10:44;;;;;;;1.17;0.90;;;18.50;26.40;;;;;;8463590;28;20066;-56
2021/04/07 00:14:45;;;;;;;1.08;0.98;;;18.50;26.50;;;;;;8457684;28;20035;-56
2021/04/07 00:18:45;;;;;;;0.80;0.70;;;18.50;26.50;;;;;;8459197;28;20468;-56
2021/04/07 00:22:46;;;;;;;0.53;0.53;;;18.50;26.50;;;;;;8458599;28;20593;-57
2021/04/07 00:26:47;;;;;;;1.05;0.82;;;18.50;26.50;;;;;;8438799;28;20547;-56
2021/04/07 00:30:49;;;;;;;1.07;0.70;;;18.50;26.50;;;;;;8462598;28;20111;-56
2021/04/07 00:34:49;;;;;;;1.00;0.90;;;18.50;26.50;;;;;;8458546;28;20047;-57
2021/04/07 00:38:50;;;;;;;0.90;0.80;;;18.50;26.50;;;;;;8456799;27;20059;-56
2021/04/07 00:42:52;;;;;;;1.40;0.77;;;18.50;26.50;;;;;;8458395;28;20497;-57
2021/04/07 00:46:53;;;;;;;1.27;0.82;;;18.50;26.40;;;;;;8462515;28;20035;-56
2021/04/07 00:50:53;;;;;;;2.17;0.80;;;18.50;26.40;;;;;;8485035;27;20030;-57
2021/04/07 00:54:54;;;;;;;1.63;0.70;;;18.50;26.40;;;;;;8473119;27;20040;-57
2021/04/07 00:58:55;;;;;;;1.00;0.70;;;18.50;26.40;;;;;;8457734;28;20024;-56
2021/04/07 01:03:00;;;;;;;0.70;0.70;;;18.50;26.40;;;;;;8460619;28;20395;-56
2021/04/07 01:07:02;;;;;;;1.52;0.80;;;18.40;26.40;;;;;;8457791;28;20252;-56
2021/04/07 01:11:02;;;;;;;1.30;0.80;;;18.40;26.40;;;;;;8457648;28;20036;-56
2021/04/07 01:15:05;;;;;;;0.80;0.80;;;18.40;26.40;;;;;;8456116;28;20042;-56
2021/04/07 01:19:09;;;;;;;1.15;0.77;;;18.40;26.50;;;;;;8457137;28;20031;-56
2021/04/07 01:23:10;;;;;;;3.03;1.08;;;18.40;26.50;;;;;;8462022;28;20480;-56
2021/04/07 01:27:11;;;;;;;1.38;0.60;;;18.40;26.60;;;;;;8455849;28;20038;-56
2021/04/07 01:31:11;;;;;;;0.73;0.70;;;18.30;26.50;;;;;;8457313;28;20032;-56
2021/04/07 01:35:13;;;;;;;1.23;0.83;;;18.30;26.60;;;;;;8457127;28;20043;-56
2021/04/07 01:39:14;;;;;;;1.23;0.80;;;18.20;26.60;;;;;;8460146;28;20040;-56
2021/04/07 01:43:16;;;;;;;1.08;0.80;;;18.20;26.60;;;;;;8463204;28;20043;-56
2021/04/07 01:47:17;;;;;;;0.75;0.60;;;18.20;26.60;;;;;;8462241;28;20020;-57
2021/04/07 01:51:18;;;;;;;0.90;0.80;;;18.20;26.60;;;;;;8463508;28;20153;-56
2021/04/07 01:55:18;;;;;;;0.80;0.63;;;18.10;26.60;;;;;;8463392;28;20046;-56
2021/04/07 01:59:27;;;;;;;1.80;0.63;;;18.10;27.00;;;;;;8466211;28;20081;-56
2021/04/07 02:03:28;;;;;;;1.65;0.93;;;18.10;26.60;;;;;;8463510;28;20036;-56
2021/04/07 02:07:28;;;;;;;0.60;0.60;;;18.10;26.60;;;;;;8463734;27;20080;-57
2021/04/07 02:11:29;;;;;;;0.63;0.60;;;18.10;26.60;;;;;;8461564;28;20471;-56
2021/04/07 02:15:29;;;;;;;2.77;0.60;;;18.10;26.70;;;;;;8467707;28;20126;-56
2021/04/07 02:19:32;;;;;;;0.70;0.60;;;18.10;26.70;;;;;;8462713;28;20047;-56
2021/04/07 02:23:34;;;;;;;0.82;0.60;;;18.10;26.70;;;;;;8461090;28;20027;-56
2021/04/07 02:27:35;;;;;;;0.82;0.60;;;18.10;26.70;;;;;;8462692;28;20032;-56
2021/04/07 02:31:36;;;;;;;1.55;0.98;;;18.10;26.60;;;;;;8462426;28;20039;-56
2021/04/07 02:35:36;;;;;;;0.80;0.70;;;18.10;26.60;;;;;;8465194;28;20379;-56
2021/04/07 02:39:37;;;;;;;1.07;0.77;;;18.10;26.60;;;;;;8462200;28;20043;-56
2021/04/07 02:43:38;;;;;;;1.57;0.70;;;18.10;26.60;;;;;;8462047;28;20055;-56
2021/04/07 02:47:38;;;;;;;0.57;0.47;;;18.10;26.60;;;;;;8460124;28;20127;-56
2021/04/07 02:51:39;;;;;;;0.87;0.60;;;18.10;26.60;;;;;;8465614;28;20024;-56
2021/04/07 02:55:39;;;;;;;0.60;0.60;;;18.10;26.60;;;;;;8461711;28;20399;-56
2021/04/07 02:59:40;;;;;;;0.73;0.57;;;18.10;26.60;;;;;;8459469;27;20126;-55
2021/04/07 03:03:40;;;;;;;1.77;0.80;;;18.10;26.60;;;;;;8469175;27;20023;-55
2021/04/07 03:07:42;;;;;;;1.20;0.83;;;18.10;26.60;;;;;;8499734;27;20031;-56
2021/04/07 03:11:42;;;;;;;0.98;0.63;;;18.10;26.60;;;;;;8461372;27;20077;-55
2021/04/07 03:15:43;;;;;;;0.77;0.63;;;18.10;26.60;;;;;;8460871;28;20130;-55
2021/04/07 03:19:44;;;;;;;1.17;0.50;;;18.10;26.60;;;;;;8461007;28;20031;-55
2021/04/07 03:23:45;;;;;;;0.70;0.63;;;18.10;26.60;;;;;;8459453;28;20115;-55
2021/04/07 03:27:45;;;;;;;0.50;0.50;;;18.10;26.60;;;;;;8464907;28;20030;-55
2021/04/07 03:31:46;;;;;;;1.10;0.80;;;18.10;26.60;;;;;;8460471;28;20047;-55
2021/04/07 03:35:47;;;;;;;0.80;0.50;;;18.10;26.60;;;;;;8458763;28;20040;-55
2021/04/07 03:39:48;;;;;;;;;;;18.10;26.60;;;;;;8460616;28;20069;-57
2021/04/07 03:43:48;;;;;;;0.60;0.50;;;18.10;26.60;;;;;;8464409;28;19947;-57
2021/04/07 03:47:49;;;;;;;1.00;0.70;;;18.10;26.60;;;;;;8458214;28;20039;-55
2021/04/07 03:51:50;;;;;;;1.33;0.67;;;18.10;26.60;;;;;;8459998;28;20047;-57
2021/04/07 03:55:56;;;;;;;0.60;0.50;;;18.00;26.60;;;;;;8459934;28;20073;-55
2021/04/07 03:59:56;;;;;;;0.75;0.60;;;18.10;26.60;;;;;;8459928;28;20042;-54
2021/04/07 04:03:57;;;;;;;1.17;0.70;;;18.10;26.60;;;;;;8460666;28;20044;-56
2021/04/07 04:07:57;;;;;;;0.70;0.50;;;18.00;26.60;;;;;;8459279;28;20067;-56
2021/04/07 04:11:58;;;;;;;0.60;0.60;;;18.00;26.60;;;;;;8457636;28;20024;-55
2021/04/07 04:15:58;;;;;;;1.13;0.73;;;18.00;27.00;;;;;;8459126;28;20047;-55
2021/04/07 04:19:59;;;;;;;1.50;0.70;;;18.10;26.60;;;;;;8463532;28;20392;-56
2021/04/07 04:23:59;;;;;;;0.70;0.63;;;18.10;26.60;;;;;;8457330;27;20024;-57
2021/04/07 04:28:00;;;;;;;0.70;0.60;;;18.20;26.60;;;;;;8458924;28;20039;-58
2021/04/07 04:32:00;;;;;;;1.07;0.63;;;18.20;26.60;;;;;;8458717;28;20424;-55
2021/04/07 04:36:01;;;;;;;0.60;0.60;;;18.30;26.60;;;;;;8461285;28;20100;-56
2021/04/07 04:40:03;;;;;;;0.80;0.60;;;18.30;26.60;;;;;;8458235;28;20088;-56
2021/04/07 04:44:03;;;;;;;;;;;18.30;26.50;;;;;;8459125;27;20035;-56
2021/04/07 04:48:04;;;;;;;0.60;0.60;;;18.40;26.60;;;;;;8456620;27;19912;-56
2021/04/07 04:52:05;;;;;;;0.88;0.60;;;18.40;26.50;;;;;;8458044;28;20126;-56
2021/04/07 04:56:06;;;;;;;1.43;0.60;;;18.50;26.50;;;;;;8462380;28;20051;-56
2021/04/07 05:00:07;;;;;;;2.30;0.60;;;18.50;26.50;;;;;;8456971;28;20036;-57
2021/04/07 05:04:08;;;;;;;1.17;0.77;;;18.50;26.50;;;;;;8457746;28;20488;-56
2021/04/07 05:08:08;;;;;;;0.50;0.50;;;18.50;26.50;;;;;;8458235;28;20049;-56
2021/04/07 05:12:09;;;;;;;1.50;0.67;;;18.60;26.50;;;;;;8460474;28;20027;-57
2021/04/07 05:16:09;;;;;;;0.90;0.60;;;18.60;26.50;;;;;;8457485;28;20564;-57
2021/04/07 05:20:11;;;;;;;1.67;0.70;;;18.60;26.50;;;;;;8475283;28;20067;-56
2021/04/07 05:24:11;;;;;;;0.88;0.68;;;18.60;26.50;;;;;;8481001;28;20512;-57
2021/04/07 05:28:12;;;;;;;1.33;0.90;;;18.60;26.50;;;;;;8461681;28;20052;-57
2021/04/07 05:32:12;;;;;;;1.83;0.60;;;18.60;26.50;;;;;;8457357;28;20039;-57
2021/04/07 05:36:14;;;;;;;1.37;0.60;;;18.60;26.50;;;;;;8456151;28;20039;-56
2021/04/07 05:40:15;;;;;;;1.50;1.38;;;18.70;26.50;;;;;;8457205;28;20126;-56
2021/04/07 05:44:15;;;;;;;1.53;0.80;;;18.60;26.50;;;;;;8455306;28;20031;-56
2021/04/07 05:48:17;;;;;;;0.83;0.70;;;18.70;26.50;;;;;;8461405;28;20074;-57
2021/04/07 05:52:17;;;;;;;1.63;0.70;;;18.70;26.50;;;;;;8457467;28;20105;-56
2021/04/07 05:56:18;;;;;;;1.40;1.27;;;18.70;26.60;;;;;;8455597;28;20491;-55
2021/04/07 06:00:19;;;;;;;1.03;0.70;;;18.70;26.40;;;;;;8457243;28;20066;-56
2021/04/07 06:04:19;;;;;;;1.65;1.20;;;18.80;26.50;;;;;;8460891;28;20043;-57
2021/04/07 06:08:20;;;;;;;1.77;0.80;;;18.80;26.50;;;;;;8455421;28;20559;-55
2021/04/07 06:12:20;;;;;;;0.77;0.70;;;18.80;26.40;;;;;;8457403;28;20027;-57
2021/04/07 06:16:21;;;;;;;0.70;0.70;;;18.80;26.40;;;;;;8456806;28;20142;-56
2021/04/07 06:20:23;;;;;;;0.97;0.70;;;18.80;26.40;;;;;;8456626;28;20112;-56
2021/04/07 06:24:24;;;;;;;1.77;1.00;;;18.80;26.50;;;;;;8459332;28;20063;-56
2021/04/07 06:28:25;;;;;;;1.63;1.03;;;18.80;26.40;;;;;;8460220;28;20399;-56
2021/04/07 06:32:26;;;;;;;1.30;0.93;;;18.80;26.40;;;;;;8460539;28;20118;-56
2021/04/07 06:36:26;;;;;;;1.20;1.10;;;18.80;26.40;;;;;;8462484;28;20126;-56
2021/04/07 06:40:29;;;;;;;1.33;1.03;;;18.90;26.40;;;;;;8466573;28;20518;-56
2021/04/07 06:44:29;;;;;;;1.80;0.88;;;18.90;26.40;;;;;;8459914;28;20110;-56
2021/04/07 06:48:30;;;;;;;1.50;1.20;;;18.90;26.40;;;;;;8461824;28;20051;-56
2021/04/07 06:52:31;;;;;;;2.23;1.30;;;19.00;26.40;;;;;;8462265;27;20031;-56
2021/04/07 06:56:33;;;;;;;1.70;1.60;;;19.00;26.40;;;;;;8463982;28;20039;-56
2021/04/07 07:00:35;;;;;;;2.40;1.70;;;19.00;26.40;;;;;;8461674;28;20035;-56
2021/04/07 07:04:36;;;;;;;2.25;1.40;;;18.90;26.40;;;;;;8461420;28;20028;-56
2021/04/07 07:08:36;;;;;;;1.87;1.50;;;19.00;26.40;;;;;;8459285;28;20036;-56
2021/04/07 07:12:37;;;;;;;2.03;1.67;;;19.00;26.30;;;;;;8442586;28;20071;-56
2021/04/07 07:16:42;;;;;;;2.87;1.80;;;19.10;26.30;;;;;;8464977;28;20065;-56
2021/04/07 07:20:43;;;;;;;4.90;1.83;;;19.10;26.30;;;;;;8459123;28;20089;-56
2021/04/07 07:24:44;;;;;;;3.37;1.70;;;19.10;26.30;;;;;;8460672;28;20028;-55
2021/04/07 07:28:48;;;;;;;3.73;2.10;;;19.00;26.30;;;;;;8460311;28;20034;-55
2021/04/07 07:32:48;;;;;;;3.88;1.77;;;19.00;26.30;;;;;;8462970;28;20023;-55
2021/04/07 07:36:49;;;;;;;4.43;1.80;;;19.10;26.30;;;;;;8460430;28;20488;-56
2021/04/07 07:41:06;;;;;;;8.50;2.63;;;19.00;26.20;;;;;;8460297;28;20039;-55
2021/04/07 07:45:08;;;;;;;7.30;2.22;;;19.00;26.20;;;;;;8458919;28;20123;-55
2021/04/07 07:49:19;;;;;;;13.57;3.63;;;19.00;26.20;;;;;;8460033;28;20026;-55
2021/04/07 07:53:22;;;;;;;11.77;3.00;;;18.90;26.20;;;;;;8462827;28;20028;-55
2021/04/07 07:57:22;;;;;;;13.15;3.58;;;18.90;26.20;;;;;;8487658;27;20036;-56
2021/04/07 08:01:23;;;;;;;13.87;3.03;;;18.80;26.20;;;;;;8474671;27;20062;-56
2021/04/07 08:05:24;;;;;;;10.70;2.73;;;18.80;26.20;;;;;;8457510;28;20024;-56
2021/04/07 08:09:26;;;;;;;19.40;3.08;;;18.80;26.30;;;;;;8463920;28;20121;-55
2021/04/07 08:13:32;;;;;;;11.57;3.25;;;18.80;26.20;;;;;;8459321;28;20047;-55
2021/04/07 08:17:33;;;;;;;13.45;3.42;;;18.80;26.30;;;;;;8457088;28;20044;-55
2021/04/07 08:21:35;;;;;;;10.02;2.83;;;18.80;26.30;;;;;;8459274;28;20123;-55
2021/04/07 08:25:36;;;;;;;11.23;3.22;;;18.70;26.30;;;;;;8440453;28;20031;-55
2021/04/07 08:29:38;;;;;;;11.93;2.83;;;18.70;26.30;;;;;;8461342;28;20038;-54
2021/04/07 08:33:39;;;;;;;12.63;3.40;;;18.70;26.40;;;;;;8458696;28;20036;-55
2021/04/07 08:37:40;;;;;;;19.30;2.95;;;18.70;26.40;;;;;;8458470;28;20031;-56
2021/04/07 08:41:41;;;;;;;16.60;3.20;;;18.70;26.40;;;;;;8456399;28;20039;-56
2021/04/07 08:45:47;;;;;;;17.98;3.67;;;18.60;26.40;;;;;;8462723;28;20023;-56
2021/04/07 08:49:47;;;;;;;22.27;4.63;;;18.60;26.40;;;;;;8457613;28;20043;-55
2021/04/07 08:53:50;;;;;;;21.30;4.60;;;18.60;26.40;;;;;;8456286;28;20070;-55
2021/04/07 08:58:02;;;;;;;17.23;3.88;;;18.60;26.40;;;;;;8469937;27;20035;-55
2021/04/07 09:02:07;;;;;;;21.45;4.22;;;18.60;26.40;;;;;;8488264;27;20145;-55
2021/04/07 09:06:12;;;;;;;18.67;4.07;;;18.60;26.50;;;;;;8460183;28;20023;-55
2021/04/07 09:10:15;;;;;;;20.48;3.83;;;18.60;26.40;;;;;;8457874;28;20144;-55
2021/04/07 09:14:16;;;;;;;16.10;3.25;;;18.60;26.40;;;;;;8456031;28;20039;-53
2021/04/07 09:18:29;;;;;;;22.73;5.03;;;18.60;26.40;;;;;;8457416;28;20056;-55
2021/04/07 09:22:30;;;;;;;18.13;3.60;;;18.60;26.50;;;;;;8457378;28;20058;-53
2021/04/07 09:26:32;;;;;;;21.13;4.07;;;18.60;26.50;;;;;;8460073;28;20028;-55
2021/04/07 09:30:46;;;;;;;18.35;4.45;;;18.60;26.50;;;;;;8457338;28;20032;-55
2021/04/07 09:34:47;;;;;;;17.38;4.22;;;18.60;26.50;;;;;;8457073;28;20052;-55
2021/04/07 09:38:50;;;;;;;22.47;4.97;;;18.60;26.50;;;;;;8455190;28;20396;-55
2021/04/07 09:42:53;;;;;;;20.52;4.18;;;18.60;26.40;;;;;;8461814;28;20488;-55
2021/04/07 09:46:58;;;;;;;9.68;2.80;;;18.60;26.40;;;;;;8457288;28;20146;-55
2021/04/07 09:50:58;;;;;;;19.48;3.60;;;18.60;26.40;;;;;;8455559;28;20122;-55
2021/04/07 09:54:59;;;;;;;14.27;3.73;;;18.60;26.80;;;;;;8457208;28;20044;-55
2021/04/07 09:58:59;;;;;;;11.83;3.07;;;18.60;26.40;;;;;;8453081;28;20040;-55
2021/04/07 10:03:03;;;;;;;15.90;3.83;;;18.60;26.40;;;;;;8458783;27;20034;-55
2021/04/07 10:07:12;;;;;;;13.15;2.80;;;18.60;26.40;;;;;;8459281;27;20422;-56
2021/04/07 10:11:13;;;;;;;6.75;2.20;;;18.60;26.40;;;;;;8458020;28;20377;-55
2021/04/07 10:15:18;;;;;;;10.40;2.43;;;18.60;26.40;;;;;;8456822;28;20044;-54
2021/04/07 10:19:18;;;;;;;10.05;2.80;;;18.50;26.40;;;;;;8471391;27;20028;-56
2021/04/07 10:23:21;;;;;;;9.30;2.20;;;18.50;26.30;;;;;;8458420;27;20488;-55
2021/04/07 10:27:24;;;;;;;10.73;2.75;;;18.50;26.30;;;;;;8462475;28;20055;-56
2021/04/07 10:31:26;;;;;;;6.50;1.92;;;18.50;26.30;;;;;;8463173;27;20192;-55
2021/04/07 10:35:29;;;;;;;9.60;2.20;;;18.50;26.30;;;;;;8460040;28;20043;-56
2021/04/07 10:39:38;;;;;;;8.10;2.47;;;18.50;26.30;;;;;;8466905;28;20035;-56
2021/04/07 10:43:43;;;;;;;9.07;2.30;;;18.50;26.30;;;;;;8462075;28;20038;-55
2021/04/07 10:47:44;;;;;;;7.43;2.00;;;18.50;26.30;;;;;;8460176;28;20031;-56
2021/04/07 10:51:45;;;;;;;7.50;2.50;;;18.50;26.30;;;;;;8460396;28;20097;-56
2021/04/07 10:55:46;;;;;;;;;;;18.50;26.30;;;;;;8466652;28;20587;-55
2021/04/07 10:59:46;;;;;;;6.10;2.17;;;18.50;26.30;;;;;;8459975;28;19911;-54
2021/04/07 11:03:47;;;;;;;10.70;1.90;;;18.40;26.30;;;;;;8461321;28;20122;-54
2021/04/07 11:07:58;;;;;;;5.43;2.27;;;18.50;26.30;;;;;;8461377;28;20032;-55
2021/04/07 11:12:02;;;;;;;8.50;2.25;;;18.40;26.30;;;;;;8459276;28;20032;-55
2021/04/07 11:16:10;;;;;;;9.38;2.72;;;18.50;26.30;;;;;;8465768;28;20048;-55
2021/04/07 11:20:12;;;;;;;8.45;2.78;;;18.50;26.30;;;;;;8460575;28;20035;-55
2021/04/07 11:24:13;;;;;;;6.85;1.70;;;18.50;26.30;;;;;;8458969;28;20440;-55
2021/04/07 11:28:18;;;;;;;5.53;1.97;;;18.50;26.30;;;;;;8460163;28;20028;-55
2021/04/07 11:32:19;;;;;;;4.38;1.40;;;18.40;26.20;;;;;;8463130;28;20028;-54
2021/04/07 11:44:33;;;;;;;3.22;1.40;;;18.40;26.20;;;;;;8458437;28;20032;-55
2021/04/07 11:48:34;;;;;;;6.10;1.63;;;18.40;26.20;;;;;;8459532;28;20480;-55
2021/04/07 11:52:34;;;;;;;3.38;1.30;;;18.40;26.20;;;;;;8464346;28;20448;-55
2021/04/07 11:56:44;;;;;;;4.67;1.50;;;18.40;26.20;;;;;;8458452;27;20122;-55
2021/04/07 12:00:45;;;;;;;3.13;1.10;;;18.40;26.20;;;;;;8459536;28;20042;-55
2021/04/07 12:04:46;;;;;;;5.00;1.20;;;18.40;26.20;;;;;;8459434;28;20028;-55
2021/04/07 12:08:47;;;;;;;;;;;18.40;26.20;;;;;;8462280;28;20039;-55
2021/04/07 12:12:48;;;;;;;4.80;1.17;;;18.40;26.20;;;;;;8459217;28;19951;-55
2021/04/07 12:16:48;;;;;;;4.15;1.40;;;18.40;26.20;;;;;;8459176;27;20397;-54
2021/04/07 12:20:49;;;;;;;5.50;1.53;;;18.40;26.20;;;;;;8456997;28;20039;-55
2021/04/07 12:24:51;;;;;;;5.60;1.30;;;18.40;26.20;;;;;;8460866;27;20027;-55
2021/04/07 12:28:52;;;;;;;3.75;1.25;;;18.40;26.20;;;;;;8497034;27;20034;-55
2021/04/07 12:32:53;;;;;;;4.77;1.30;;;18.40;26.10;;;;;;8489886;27;20035;-55
2021/04/07 12:36:58;;;;;;;4.30;1.40;;;18.40;26.20;;;;;;8474730;27;20502;-56
2021/04/07 12:41:01;;;;;;;3.30;1.25;;;18.40;26.20;;;;;;8458138;28;20051;-55
2021/04/07 12:45:03;;;;;;;3.78;1.20;;;18.40;26.20;;;;;;8460824;28;20023;-55
2021/04/07 12:49:04;;;;;;;3.58;1.40;;;18.40;26.10;;;;;;8457708;28;20123;-55
2021/04/07 12:53:05;;;;;;;5.47;1.20;;;18.40;26.10;;;;;;8457849;28;20051;-55
2021/04/07 12:57:05;;;;;;;2.90;1.10;;;18.40;26.10;;;;;;8467857;27;20043;-56
2021/04/07 13:01:06;;;;;;;3.10;1.20;;;18.40;26.10;;;;;;8489530;27;20072;-56
2021/04/07 13:05:08;;;;;;;3.43;1.20;;;18.40;26.10;;;;;;8462242;28;20115;-55
2021/04/07 13:09:08;;;;;;;;;;;18.40;26.10;;;;;;8456415;28;20040;-55
2021/04/07 13:13:09;;;;;;;2.40;1.10;;;18.40;26.10;;;;;;8457809;28;19977;-55
2021/04/07 13:17:11;;;;;;;2.23;0.80;;;18.40;26.10;;;;;;8462799;27;20063;-56
2021/04/07 13:21:12;;;;;;;4.90;1.58;;;18.40;26.10;;;;;;8494152;27;20421;-55
2021/04/07 13:25:13;;;;;;;3.65;1.00;;;18.40;26.50;;;;;;8460063;28;20044;-55
2021/04/07 13:29:14;;;;;;;3.47;1.13;;;18.40;26.10;;;;;;8457309;28;20058;-55
2021/04/07 13:33:22;;;;;;;1.57;0.90;;;18.30;26.10;;;;;;8455954;28;20041;-57
2021/04/07 13:37:32;;;;;;;2.72;0.80;;;18.40;26.10;;;;;;8461358;28;20400;-56
2021/04/07 13:45:48;;;;;;;3.15;1.00;;;18.30;26.10;;;;;;8491856;27;20031;-55
2021/04/07 13:49:49;;;;;;;0.70;0.70;;;18.30;26.10;;;;;;8479145;27;20065;-55
2021/04/07 13:53:50;;;;;;;1.70;1.00;;;18.30;26.10;;;;;;8461940;28;20510;-55
2021/04/07 13:57:51;;;;;;;1.60;0.90;;;18.30;26.10;;;;;;8468068;28;20287;-55
2021/04/07 14:01:53;;;;;;;2.83;1.00;;;18.30;26.10;;;;;;8463654;28;20035;-55
2021/04/07 14:05:53;;;;;;;2.70;1.15;;;18.30;26.10;;;;;;8461530;28;20757;-57
2021/04/07 14:09:55;;;;;;;2.03;0.80;;;18.30;26.20;;;;;;8463218;28;20079;-55
2021/04/07 14:13:55;;;;;;;2.47;1.02;;;18.30;26.20;;;;;;8463321;28;20069;-55
2021/04/07 14:17:56;;;;;;;2.47;0.90;;;18.30;26.20;;;;;;8465381;28;20100;-57
2021/04/07 14:21:57;;;;;;;3.63;0.90;;;18.30;26.20;;;;;;8462820;28;20031;-54
2021/04/07 14:26:01;;;;;;;2.60;1.13;;;18.30;26.20;;;;;;8462562;28;20038;-55
2021/04/07 14:30:02;;;;;;;1.67;0.77;;;18.30;26.20;;;;;;8460867;27;20027;-55
2021/04/07 14:34:03;;;;;;;1.77;1.02;;;18.30;26.20;;;;;;8466803;28;20142;-55
2021/04/07 14:38:04;;;;;;;2.85;0.80;;;18.30;26.20;;;;;;8492315;27;20031;-55
2021/04/07 14:42:06;;;;;;;1.67;0.67;;;18.30;26.20;;;;;;8473863;27;20074;-54
2021/04/07 14:46:10;;;;;;;1.23;0.70;;;18.30;26.20;;;;;;8461269;28;20024;-55
2021/04/07 14:50:16;;;;;;;1.83;1.00;;;18.30;26.20;;;;;;8460321;28;20051;-55
2021/04/07 14:58:21;;;;;;;1.52;0.75;;;18.30;26.10;;;;;;8486772;27;20031;-55
2021/04/07 15:02:22;;;;;;;3.95;1.10;;;18.40;26.10;;;;;;8476527;27;20114;-55
2021/04/07 15:06:22;;;;;;;1.17;0.90;;;18.40;26.10;;;;;;8461508;28;20039;-55
2021/04/07 15:10:25;;;;;;;2.30;0.93;;;18.40;26.10;;;;;;8465808;28;20043;-55
2021/04/07 15:14:27;;;;;;;3.72;0.80;;;18.40;26.10;;;;;;8459121;28;20048;-55
2021/04/07 15:18:28;;;;;;;2.15;0.93;;;18.50;26.10;;;;;;8461177;28;20039;-55
2021/04/07 15:22:32;;;;;;;1.50;0.93;;;18.60;26.10;;;;;;8460574;28;20040;-55
2021/04/07 15:26:34;;;;;;;1.35;0.80;;;18.60;26.00;;;;;;8459764;28;20031;-56
2021/04/07 15:30:47;;;;;;;1.92;0.93;;;18.70;26.00;;;;;;8499379;27;20384;-56
2021/04/07 15:34:48;;;;;;;1.65;1.00;;;18.70;26.00;;;;;;8467454;27;20047;-56
2021/04/07 15:38:49;;;;;;;1.60;0.70;;;18.80;26.10;;;;;;8456154;27;20038;-56
2021/04/07 15:42:50;;;;;;;1.83;0.90;;;18.80;26.00;;;;;;8487798;27;20024;-56
2021/04/07 15:46:51;;;;;;;1.50;0.70;;;18.80;26.00;;;;;;8464638;28;20030;-56
2021/04/07 15:50:55;;;;;;;1.90;0.90;;;18.90;26.00;;;;;;8457918;28;20376;-57
2021/04/07 15:54:56;;;;;;;1.80;0.82;;;18.90;26.00;;;;;;8460286;28;20048;-56
2021/04/07 15:58:57;;;;;;;1.20;0.70;;;18.90;26.00;;;;;;8459707;28;20077;-55
2021/04/07 16:02:57;;;;;;;1.43;0.80;;;18.90;25.90;;;;;;8457959;28;20074;-55
2021/04/07 16:06:58;;;;;;;1.77;0.50;;;19.00;26.00;;;;;;8463951;28;20093;-56
2021/04/07 16:10:59;;;;;;;0.70;0.70;;;19.00;26.00;;;;;;8483457;27;20059;-50
2021/04/07 16:15:00;;;;;;;1.88;1.00;;;19.00;26.00;;;;;;8476840;27;20066;-48
2021/04/07 16:19:00;;;;;;;2.00;1.17;;;18.80;25.40;;;;;;8457806;28;20020;-55
2021/04/07 16:23:03;;;;;;;1.37;0.70;;;18.70;25.90;;;;;;8442104;28;20032;-56
2021/04/07 16:27:04;;;;;;;4.72;0.90;;;18.60;26.10;;;;;;8454482;28;20115;-56
2021/04/07 16:31:05;;;;;;;2.03;1.07;;;18.70;26.20;;;;;;8454173;28;20046;-57
2021/04/07 16:35:06;;;;;;;1.23;0.70;;;18.80;26.20;;;;;;8452103;28;20396;-57
2021/04/07 16:39:07;;;;;;;5.88;1.20;;;19.00;26.30;;;;;;8454778;28;20084;-58
2021/04/07 16:43:07;;;;;;;6.23;0.97;;;19.10;26.40;;;;;;8452445;28;20487;-57
2021/04/07 16:47:08;;;;;;;4.30;1.00;;;19.20;26.30;;;;;;8452484;28;20035;-57
2021/04/07 16:51:10;;;;;;;3.37;1.10;;;19.30;26.40;;;;;;8449992;28;20035;-56
2021/04/07 16:55:11;;;;;;;2.90;1.50;;;19.40;26.30;;;;;;8451658;28;20132;-56
2021/04/07 16:59:12;;;;;;;4.55;1.73;;;19.50;26.30;;;;;;8455444;28;20027;-57
2021/04/07 17:03:12;;;;;;;2.43;1.43;;;19.50;26.30;;;;;;8449370;28;20066;-57
2021/04/07 17:07:13;;;;;;;5.40;2.23;;;19.60;26.40;;;;;;8452149;28;20051;-58
2021/04/07 17:11:17;;;;;;;6.10;2.40;;;19.60;26.30;;;;;;8451428;27;20028;-56
2021/04/07 17:15:17;;;;;;;4.57;1.58;;;19.70;26.30;;;;;;8454982;28;20435;-56
2021/04/07 17:19:18;;;;;;;3.87;1.80;;;19.70;26.30;;;;;;8451311;28;20070;-57
2021/04/07 17:23:18;;;;;;;5.33;2.10;;;19.80;26.30;;;;;;8445968;28;20489;-55
2021/04/07 17:27:19;;;;;;;6.27;2.93;;;19.90;26.30;;;;;;8443020;28;20512;-55
2021/04/07 17:31:19;;;;;;;5.13;2.57;;;20.00;26.30;;;;;;8452605;28;20445;-55
2021/04/07 17:35:20;;;;;;;4.40;2.70;;;20.00;26.20;;;;;;8452301;28;20333;-55
2021/04/07 17:39:20;;;;;;;8.03;2.70;;;20.10;26.20;;;;;;8451227;28;20040;-55
2021/04/07 17:43:22;;;;;;;5.70;2.43;;;20.10;26.20;;;;;;8450994;28;20047;-56
2021/04/07 17:47:24;;;;;;;4.93;2.42;;;20.20;26.20;;;;;;8449402;28;20035;-56
2021/04/07 17:51:24;;;;;;;8.10;2.17;;;20.20;26.20;;;;;;8455609;28;20051;-56
2021/04/07 17:55:25;;;;;;;4.93;1.97;;;20.30;26.30;;;;;;8450696;28;20052;-55
2021/04/07 17:59:25;;;;;;;5.37;2.40;;;20.30;26.20;;;;;;8448806;28;20040;-54
2021/04/07 18:03:26;;;;;;;3.67;2.10;;;20.30;26.40;;;;;;8450962;28;20070;-54
2021/04/07 18:07:27;;;;;;;4.50;2.33;;;20.30;26.30;;;;;;8455386;28;20024;-55
2021/04/07 18:11:27;;;;;;;5.57;2.43;;;20.30;26.30;;;;;;8449235;28;20034;-55
2021/04/07 18:15:28;;;;;;;5.00;2.30;;;20.40;26.30;;;;;;8450953;28;20396;-56
2021/04/07 18:19:29;;;;;;;4.03;2.65;;;20.40;26.30;;;;;;8458716;28;20448;-57
2021/04/07 18:23:30;;;;;;;6.80;2.30;;;20.40;26.20;;;;;;8442819;27;20069;-58
2021/04/07 18:27:30;;;;;;;7.53;2.50;;;20.50;26.30;;;;;;8460899;28;20039;-58
2021/04/07 18:31:31;;;;;;;5.27;2.53;;;20.50;26.30;;;;;;8452937;27;20060;-56
2021/04/07 18:35:32;;;;;;;5.72;2.58;;;20.60;26.30;;;;;;8454129;27;20419;-56
2021/04/07 18:39:32;;;;;;;2.90;2.17;;;20.60;26.30;;;;;;8456606;27;20042;-56
2021/04/07 18:43:33;;;;;;;2.87;2.00;;;20.60;26.30;;;;;;8460863;28;20031;-56
2021/04/07 18:47:35;;;;;;;8.07;3.28;;;20.60;26.30;;;;;;8480573;27;20221;-56
2021/04/07 18:51:35;;;;;;;4.40;2.85;;;20.60;26.30;;;;;;8455975;28;20548;-57
2021/04/07 18:55:39;;;;;;;6.53;3.20;;;20.60;26.30;;;;;;8455736;28;20047;-57
2021/04/07 18:59:39;;;;;;;5.80;3.42;;;20.70;26.40;;;;;;8458542;28;20463;-57
2021/04/07 19:03:40;;;;;;;13.00;3.53;;;20.70;26.40;;;;;;8455495;28;20044;-57
2021/04/07 19:07:40;;;;;;;7.53;3.17;;;20.70;26.40;;;;;;8455672;28;20555;-57
2021/04/07 19:11:41;;;;;;;3.53;2.47;;;20.80;26.40;;;;;;8453931;28;20126;-58
2021/04/07 19:15:41;;;;;;;8.67;2.90;;;20.80;26.40;;;;;;8454622;28;20043;-56
2021/04/07 19:19:42;;;;;;;3.90;2.97;;;20.80;26.40;;;;;;8459597;28;20073;-57
2021/04/07 19:23:43;;;;;;;6.20;2.93;;;20.80;26.40;;;;;;8479797;27;20088;-53
2021/04/07 19:27:44;;;;;;;9.87;2.90;;;20.90;26.50;;;;;;8471048;27;20077;-55
2021/04/07 19:31:44;;;;;;;5.75;2.75;;;20.90;26.40;;;;;;8481684;27;20046;-56
2021/04/07 19:35:45;;;;;;;3.47;2.50;;;20.90;26.40;;;;;;8456755;28;20047;-55
2021/04/07 19:39:45;;;;;;;4.17;2.53;;;20.90;26.40;;;;;;8454512;28;20081;-54
2021/04/07 19:43:46;;;;;;;5.87;2.40;;;20.90;26.40;;;;;;8454320;28;20381;-55
2021/04/07 19:47:50;;;;;;;4.17;2.80;;;20.90;26.40;;;;;;8452584;28;20782;-55
2021/04/07 19:51:51;;;;;;;5.35;2.80;;;21.00;26.40;;;;;;8454761;28;20051;-55
2021/04/07 19:55:52;;;;;;;6.10;2.80;;;21.00;26.40;;;;;;8457985;28;20097;-55
2021/04/07 19:59:52;;;;;;;3.37;2.60;;;21.00;26.50;;;;;;8449620;28;20376;-53
2021/04/07 20:03:53;;;;;;;5.47;2.40;;;21.00;26.50;;;;;;8453081;28;20036;-58
2021/04/07 20:07:54;;;;;;;6.23;2.30;;;21.00;27.00;;;;;;8453909;28;20118;-58
2021/04/07 20:11:54;;;;;;;2.73;2.23;;;21.00;26.70;;;;;;8456828;28;20031;-56
2021/04/07 20:15:55;;;;;;;3.00;2.43;;;20.90;26.70;;;;;;8475179;27;20051;-57
2021/04/07 20:19:55;;;;;;;4.97;2.43;;;20.90;26.60;;;;;;8471751;27;20030;-55
2021/04/07 20:23:56;;;;;;;8.57;2.57;;;21.00;26.70;;;;;;8477797;27;20059;-55
2021/04/07 20:27:57;;;;;;;4.47;2.30;;;20.90;26.70;;;;;;8459598;28;20488;-56
2021/04/07 20:31:58;;;;;;;3.20;2.20;;;20.90;26.70;;;;;;8450936;28;20024;-56
2021/04/07 20:35:58;;;;;;;3.20;2.33;;;20.90;26.70;;;;;;8446796;28;20048;-56
2021/04/07 20:40:00;;;;;;;6.37;4.10;;;20.90;26.70;;;;;;8470849;27;20036;-56
2021/04/07 20:44:01;;;;;;;3.70;2.67;;;20.90;26.60;;;;;;8489990;27;20027;-56
2021/04/07 20:48:05;;;;;;;6.20;2.60;;;20.80;26.60;;;;;;8460804;28;20107;-55
2021/04/07 20:52:07;;;;;;;5.10;2.35;;;20.80;26.60;;;;;;8458779;28;20783;-56
2021/04/07 20:56:07;;;;;;;4.70;2.65;;;20.70;26.50;;;;;;8459302;28;20491;-56
2021/04/07 21:00:09;;;;;;;4.57;2.30;;;20.70;26.50;;;;;;8457034;28;20028;-56
2021/04/07 21:04:10;;;;;;;3.90;2.30;;;20.60;26.50;;;;;;8462433;28;20070;-56
2021/04/07 21:08:10;;;;;;;5.17;2.50;;;20.60;26.50;;;;;;8458263;28;20028;-56
2021/04/07 21:12:11;;;;;;;3.43;2.17;;;20.60;26.50;;;;;;8456521;28;20061;-55
2021/04/07 21:16:11;;;;;;;3.27;1.90;;;20.50;26.50;;;;;;8458100;28;20036;-56